createdAt,value
2023-01-18T00:01:15.750Z,97976.23
2023-01-18T00:03:43.530Z,97971.13
2023-01-18T00:06:12.007Z,97972.55
2023-01-18T00:08:42.373Z,97973.46
2023-01-18T00:11:12.725Z,97968.72
2023-01-18T00:13:40.906Z,97969.02
2023-01-18T00:16:12.113Z,97967.17
2023-01-18T00:18:40.145Z,97963.02
2023-01-18T00:21:10.658Z,97961.02
2023-01-18T00:23:38.937Z,97956.14
2023-01-18T00:26:09.332Z,97951.16
2023-01-18T00:28:38.712Z,97953.34
2023-01-18T00:31:15.597Z,97959.73
2023-01-18T00:33:44.755Z,97964.52
2023-01-18T00:36:14.211Z,97959.15
2023-01-18T00:38:42.715Z,97955.05
2023-01-18T00:41:10.512Z,97953.78
2023-01-18T00:43:41.785Z,97957.07
2023-01-18T00:46:11.851Z,97958.73
2023-01-18T00:48:44.375Z,97954.98
2023-01-18T00:51:15.383Z,97949.98
2023-01-18T00:53:44.796Z,97944.30
2023-01-18T00:56:15.692Z,97939.85
2023-01-18T00:58:44.133Z,97941.48
2023-01-18T01:01:12.703Z,97947.25
2023-01-18T01:03:59.512Z,97950.98
2023-01-18T01:06:46.745Z,97946.69
2023-01-18T01:09:20.445Z,97939.43
2023-01-18T01:12:08.089Z,97940.27
2023-01-18T01:14:57.424Z,97934.93
2023-01-18T01:17:44.312Z,97931.67
2023-01-18T01:20:31.261Z,97923.32
2023-01-18T01:23:47.141Z,97923.49
2023-01-18T01:26:15.027Z,97920.95
2023-01-18T01:28:50.633Z,97921.45
2023-01-18T01:31:19.500Z,97916.35
2023-01-18T01:33:49.279Z,97915.38
2023-01-18T01:36:22.015Z,97910.11
2023-01-18T01:38:50.471Z,97911.55
2023-01-18T01:41:27.734Z,97908.98
2023-01-18T01:43:58.079Z,97903.67
2023-01-18T01:46:32.861Z,97905.23
2023-01-18T01:49:14.435Z,97905.58
2023-01-18T01:51:44.576Z,97904.56
2023-01-18T01:54:19.678Z,97908.98
2023-01-18T01:56:48.168Z,97910.36
2023-01-18T01:59:17.063Z,97910.66
2023-01-18T02:01:45.403Z,97911.94
2023-01-18T02:04:13.316Z,97907.97
2023-01-18T02:06:41.384Z,97904.11
2023-01-18T02:09:13.093Z,97900.17
2023-01-18T02:11:41.869Z,97902.26
2023-01-18T02:14:13.205Z,97903.70
2023-01-18T02:17:16.483Z,97907.49
2023-01-18T02:20:26.108Z,97906.45
2023-01-18T02:23:22.949Z,97907.11
2023-01-18T02:25:50.875Z,97896.45
2023-01-18T02:28:24.513Z,97896.47
2023-01-18T02:31:15.513Z,97894.95
2023-01-18T02:33:43.390Z,97893.38
2023-01-18T02:36:36.760Z,97895.69
2023-01-18T02:39:11.436Z,97894.41
2023-01-18T02:42:02.943Z,97901.82
2023-01-18T02:44:54.133Z,97906.79
2023-01-18T02:47:23.472Z,97907.07
2023-01-18T02:49:51.401Z,97911.22
2023-01-18T02:52:42.840Z,97908.20
2023-01-18T02:55:38.079Z,97912.61
2023-01-18T02:58:12.861Z,97916.55
2023-01-18T03:00:46.065Z,97915.30
2023-01-18T03:03:15.388Z,97917.73
2023-01-18T03:05:43.759Z,97918.17
2023-01-18T03:08:25.630Z,97918.17
2023-01-18T03:11:00.506Z,97922.02
2023-01-18T03:14:05.468Z,97916.31
2023-01-18T03:16:39.847Z,97919.37
2023-01-18T03:19:32.793Z,97916.61
2023-01-18T03:22:01.564Z,97915.77
2023-01-18T03:24:30.684Z,97924.21
2023-01-18T03:27:17.842Z,97919.50
2023-01-18T03:30:05.418Z,97920.05
2023-01-18T03:32:53.251Z,97920.48
2023-01-18T03:35:27.073Z,97920.05
2023-01-18T03:37:56.725Z,97921.78
2023-01-18T03:40:28.589Z,97917.31
2023-01-18T03:42:59.508Z,97916.89
2023-01-18T03:45:33.168Z,97918.31
2023-01-18T03:48:01.951Z,97921.17
2023-01-18T03:50:39.772Z,97924.89
2023-01-18T03:53:12.836Z,97923.46
2023-01-18T03:55:49.079Z,97919.94
2023-01-18T03:58:20.207Z,97912.88
2023-01-18T04:00:48.156Z,97903.54
2023-01-18T04:03:17.840Z,97899.52
2023-01-18T04:05:45.750Z,97899.03
2023-01-18T04:08:14.683Z,97894.98
2023-01-18T04:10:42.550Z,97893.64
2023-01-18T04:13:11.118Z,97891.15
2023-01-18T04:15:39.081Z,97889.08
2023-01-18T04:18:06.985Z,97883.96
2023-01-18T04:20:35.031Z,97883.27
2023-01-18T04:23:03.052Z,97873.45
2023-01-18T04:25:31.067Z,97874.86
2023-01-18T04:27:58.901Z,97870.36
2023-01-18T04:30:27.525Z,97868.27
2023-01-18T04:32:55.369Z,97867.82
2023-01-18T04:35:26.198Z,97869.30
2023-01-18T04:37:54.010Z,97877.11
2023-01-18T04:40:21.981Z,97887.30
2023-01-18T04:42:54.081Z,97902.92
2023-01-18T04:45:22.164Z,97917.63
2023-01-18T04:47:49.948Z,97918.09
2023-01-18T04:50:17.898Z,97914.39
2023-01-18T04:52:45.751Z,97910.45
2023-01-18T04:55:15.441Z,97901.20
2023-01-18T04:57:44.497Z,97901.20
2023-01-18T05:00:15.671Z,97904.09
2023-01-18T05:02:43.549Z,97910.23
2023-01-18T05:05:11.684Z,97907.00
2023-01-18T05:07:39.660Z,97908.39
2023-01-18T05:10:07.794Z,97913.63
2023-01-18T05:12:35.693Z,97924.69
2023-01-18T05:15:05.977Z,97936.81
2023-01-18T05:17:35.256Z,97939.73
2023-01-18T05:20:06.471Z,97938.23
2023-01-18T05:22:34.666Z,97930.67
2023-01-18T05:25:06.214Z,97928.60
2023-01-18T05:27:34.398Z,97924.48
2023-01-18T05:30:02.370Z,97918.38
2023-01-18T05:32:30.190Z,97916.07
2023-01-18T05:34:58.007Z,97911.86
2023-01-18T05:37:27.227Z,97909.55
2023-01-18T05:39:55.081Z,97903.05
2023-01-18T05:42:22.950Z,97899.99
2023-01-18T05:44:50.850Z,97897.63
2023-01-18T05:47:18.681Z,97892.61
2023-01-18T05:49:46.937Z,97887.07
2023-01-18T05:52:14.839Z,97882.98
2023-01-18T05:54:42.638Z,97884.20
2023-01-18T05:57:11.081Z,97884.83
2023-01-18T05:59:39.107Z,97892.05
2023-01-18T06:02:06.974Z,97891.54
2023-01-18T06:04:34.934Z,97895.06
2023-01-18T06:07:02.792Z,97898.45
2023-01-18T06:09:30.567Z,97898.54
2023-01-18T06:11:58.423Z,97900.97
2023-01-18T06:14:26.232Z,97902.02
2023-01-18T06:16:54.014Z,97905.33
2023-01-18T06:19:22.008Z,97908.86
2023-01-18T06:21:49.943Z,97910.93
2023-01-18T06:24:17.737Z,97910.80
2023-01-18T06:26:45.561Z,97908.73
2023-01-18T06:29:13.697Z,97909.83
2023-01-18T06:31:41.588Z,97908.55
2023-01-18T06:34:09.553Z,97905.41
2023-01-18T06:36:38.765Z,97902.39
2023-01-18T06:39:06.797Z,97900.44
2023-01-18T06:41:34.788Z,97898.02
2023-01-18T06:44:02.870Z,97895.64
2023-01-18T06:46:30.809Z,97888.58
2023-01-18T06:48:58.692Z,97890.45
2023-01-18T06:51:26.523Z,97893.00
2023-01-18T06:53:54.356Z,97889.45
2023-01-18T06:56:22.402Z,97894.60
2023-01-18T06:58:52.107Z,97890.25
2023-01-18T07:01:20.042Z,97891.95
2023-01-18T07:03:48.084Z,97893.84
2023-01-18T07:06:16.047Z,97895.80
2023-01-18T07:08:44.292Z,97894.61
2023-01-18T07:11:13.294Z,97896.27
2023-01-18T07:13:43.664Z,97898.14
2023-01-18T07:16:18.474Z,97901.02
2023-01-18T07:18:48.401Z,97903.58
2023-01-18T07:21:17.638Z,97902.98
2023-01-18T07:23:45.567Z,97903.48
2023-01-18T07:26:16.559Z,97900.01
2023-01-18T07:28:45.854Z,97902.89
2023-01-18T07:31:14.358Z,97909.19
2023-01-18T07:33:42.555Z,97919.23
2023-01-18T07:36:11.391Z,97922.11
2023-01-18T07:38:39.649Z,97916.04
2023-01-18T07:41:09.698Z,97911.53
2023-01-18T07:44:24.327Z,97910.20
2023-01-18T07:46:52.123Z,97913.20
2023-01-18T07:49:19.977Z,97914.17
2023-01-18T07:51:47.765Z,97917.05
2023-01-18T07:54:17.315Z,97914.30
2023-01-18T07:56:45.426Z,97908.63
2023-01-18T07:59:13.601Z,97906.94
2023-01-18T08:01:41.496Z,97905.83
2023-01-18T08:04:09.594Z,97905.08
2023-01-18T08:06:37.508Z,97912.22
2023-01-18T08:09:05.665Z,97907.98
2023-01-18T08:11:33.457Z,97911.33
2023-01-18T08:14:01.316Z,97919.02
2023-01-18T08:16:29.478Z,97924.17
2023-01-18T08:18:57.320Z,97927.05
2023-01-18T08:21:25.152Z,97937.28
2023-01-18T08:23:53.839Z,97944.77
2023-01-18T08:26:21.739Z,97947.88
2023-01-18T08:28:49.622Z,97950.83
2023-01-18T08:31:20.039Z,97950.77
2023-01-18T08:33:48.955Z,97953.50
2023-01-18T08:36:21.990Z,97954.51
2023-01-18T08:38:53.917Z,97953.41
2023-01-18T08:41:24.014Z,97954.12
2023-01-18T08:43:52.605Z,97954.80
2023-01-18T08:46:21.041Z,97958.74
2023-01-18T08:48:50.624Z,97955.99
2023-01-18T08:51:18.909Z,97962.33
2023-01-18T08:53:46.758Z,97967.16
2023-01-18T08:56:14.852Z,97968.90
2023-01-18T08:58:42.610Z,97962.25
2023-01-18T09:01:10.833Z,97960.75
2023-01-18T09:03:38.640Z,97962.61
2023-01-18T09:06:12.913Z,97964.77
2023-01-18T09:08:41.082Z,97962.61
2023-01-18T09:11:10.498Z,97960.11
2023-01-18T09:13:54.659Z,97963.17
2023-01-18T09:16:28.378Z,97972.17
2023-01-18T09:18:56.690Z,97976.61
2023-01-18T09:21:24.485Z,97986.42
2023-01-18T09:23:52.380Z,97994.39
2023-01-18T09:26:21.294Z,97996.28
2023-01-18T09:28:53.809Z,98003.74
2023-01-18T09:31:24.005Z,98007.13
2023-01-18T09:33:53.930Z,98003.69
2023-01-18T09:36:26.865Z,98001.49
2023-01-18T09:38:58.198Z,98004.20
2023-01-18T09:41:33.456Z,98002.98
2023-01-18T09:44:09.084Z,98003.33
2023-01-18T09:46:39.345Z,98001.50
2023-01-18T09:49:26.581Z,98001.84
2023-01-18T09:55:01.266Z,98003.31
2023-01-18T09:58:00.291Z,97999.52
2023-01-18T10:00:31.426Z,97995.75
2023-01-18T10:03:08.552Z,97992.51
2023-01-18T10:05:43.409Z,97994.78
2023-01-18T10:17:01.096Z,98003.09
2023-01-18T10:19:31.031Z,98001.10
2023-01-18T10:22:08.688Z,97999.05
2023-01-18T10:24:36.613Z,97994.49
2023-01-18T10:27:36.777Z,97992.74
2023-01-18T10:30:12.678Z,97991.34
2023-01-18T10:32:44.277Z,97998.27
2023-01-18T10:35:37.108Z,98007.38
2023-01-18T10:38:08.662Z,98011.30
2023-01-18T10:40:37.980Z,98012.38
2023-01-18T10:43:10.575Z,98017.95
2023-01-18T10:45:38.458Z,98020.26
2023-01-18T10:48:20.436Z,98020.07
2023-01-18T10:50:53.240Z,98020.52
2023-01-18T10:53:24.219Z,98024.89
2023-01-18T10:56:02.114Z,98021.63
2023-01-18T10:58:34.019Z,98026.04
2023-01-18T11:01:03.986Z,98024.77
2023-01-18T11:03:38.570Z,98024.21
2023-01-18T11:06:07.379Z,98027.55
2023-01-18T11:08:36.161Z,98029.05
2023-01-18T11:11:07.768Z,98033.50
2023-01-18T11:13:42.767Z,98034.62
2023-01-18T11:16:15.656Z,98034.88
2023-01-18T11:18:56.715Z,98037.16
2023-01-18T11:21:25.752Z,98037.84
2023-01-18T11:23:55.321Z,98035.15
2023-01-18T11:26:23.607Z,98036.87
2023-01-18T11:29:00.259Z,98038.52
2023-01-18T11:31:31.058Z,98036.11
2023-01-18T11:34:04.521Z,98041.84
2023-01-18T11:36:37.286Z,98043.61
2023-01-18T11:39:37.701Z,98046.64
2023-01-18T11:42:35.107Z,98047.55
2023-01-18T11:45:22.613Z,98053.42
2023-01-18T11:47:53.534Z,98056.00
2023-01-18T11:50:35.209Z,98059.45
2023-01-18T11:53:45.466Z,98062.57
2023-01-18T11:57:00.106Z,98059.41
2023-01-18T11:59:31.908Z,98067.35
2023-01-18T12:02:08.601Z,98070.91
2023-01-18T12:05:14.773Z,98070.46
2023-01-18T12:08:16.877Z,98074.41
2023-01-18T12:11:02.837Z,98084.60
2023-01-18T12:13:39.603Z,98090.64
2023-01-18T12:16:21.900Z,98091.83
2023-01-18T12:19:19.473Z,98096.66
2023-01-18T12:21:53.254Z,98097.80
2023-01-18T12:24:45.831Z,98098.02
2023-01-18T12:27:37.027Z,98101.34
2023-01-18T12:30:19.861Z,98096.86
2023-01-18T12:32:57.677Z,98100.14
2023-01-18T12:35:48.464Z,98105.58
2023-01-18T12:38:18.514Z,98122.48
2023-01-18T12:40:54.217Z,98128.09
2023-01-18T12:43:30.953Z,98134.02
2023-01-18T12:46:10.712Z,98139.72
2023-01-18T12:48:48.285Z,98145.08
2023-01-18T12:51:18.910Z,98145.90
2023-01-18T12:53:58.898Z,98147.98
2023-01-18T12:56:34.361Z,98152.69
2023-01-18T12:59:17.119Z,98156.31
2023-01-18T13:01:52.340Z,98162.93
2023-01-18T13:04:36.612Z,98165.17
2023-01-18T13:07:08.014Z,98167.48
2023-01-18T13:09:40.920Z,98172.08
2023-01-18T13:12:09.734Z,98179.80
2023-01-18T13:14:45.780Z,98188.52
2023-01-18T13:17:29.109Z,98190.96
2023-01-18T13:20:05.012Z,98201.37
2023-01-18T13:22:59.818Z,98207.18
2023-01-18T13:25:36.230Z,98213.00
2023-01-18T13:28:12.842Z,98218.54
2023-01-18T13:31:07.106Z,98219.27
2023-01-18T13:33:41.057Z,98224.80
2023-01-18T13:36:11.990Z,98226.77
2023-01-18T13:38:55.117Z,98233.47
2023-01-18T13:41:25.517Z,98236.36
2023-01-18T13:44:02.189Z,98238.85
2023-01-18T13:46:33.986Z,98239.89
2023-01-18T13:49:38.029Z,98242.14
2023-01-18T13:52:30.569Z,98245.65
2023-01-18T13:55:05.316Z,98251.68
2023-01-18T13:57:34.496Z,98256.16
2023-01-18T14:00:03.873Z,98268.73
2023-01-18T14:02:43.348Z,98280.38
2023-01-18T14:05:25.349Z,98287.95
2023-01-18T14:07:57.109Z,98288.46
2023-01-18T14:10:25.611Z,98304.44
2023-01-18T14:12:55.525Z,98307.30
2023-01-18T14:15:30.568Z,98311.98
2023-01-18T14:17:59.407Z,98313.02
2023-01-18T14:20:49.046Z,98313.75
2023-01-18T14:23:32.406Z,98318.55
2023-01-18T14:26:06.725Z,98324.16
2023-01-18T14:28:41.531Z,98328.50
2023-01-18T14:31:17.312Z,98336.59
2023-01-18T14:33:45.399Z,98344.79
2023-01-18T14:36:25.124Z,98349.45
2023-01-18T14:39:13.067Z,98351.41
2023-01-18T14:41:43.828Z,98358.63
2023-01-18T14:44:56.992Z,98363.08
2023-01-18T14:47:29.981Z,98371.13
2023-01-18T14:49:58.457Z,98372.73
2023-01-18T14:52:30.229Z,98373.33
2023-01-18T14:54:58.113Z,98379.78
2023-01-18T14:57:26.068Z,98384.95
2023-01-18T14:59:57.039Z,98389.71
2023-01-18T15:02:27.790Z,98391.45
2023-01-18T15:05:17.867Z,98392.58
2023-01-18T15:07:54.041Z,98396.52
2023-01-18T15:10:23.126Z,98400.09
2023-01-18T15:12:54.832Z,98405.89
2023-01-18T15:15:28.717Z,98413.23
2023-01-18T15:18:03.041Z,98420.39
2023-01-18T15:20:30.949Z,98425.86
2023-01-18T15:22:59.122Z,98428.50
2023-01-18T15:25:30.732Z,98429.39
2023-01-18T15:28:11.870Z,98433.69
2023-01-18T15:30:48.970Z,98435.94
2023-01-18T15:33:17.153Z,98437.31
2023-01-18T15:35:47.935Z,98442.75
2023-01-18T15:38:17.236Z,98449.00
2023-01-18T15:41:14.860Z,98456.80
2023-01-18T15:43:44.621Z,98459.23
2023-01-18T15:46:14.558Z,98456.08
2023-01-18T15:48:49.716Z,98458.39
2023-01-18T15:51:20.347Z,98464.30
2023-01-18T15:53:56.321Z,98466.21
2023-01-18T15:56:27.004Z,98476.23
2023-01-18T15:58:56.064Z,98477.05
2023-01-18T16:01:29.280Z,98477.67
2023-01-18T16:03:59.365Z,98478.29
2023-01-18T16:06:29.805Z,98480.58
2023-01-18T16:09:16.200Z,98485.77
2023-01-18T16:11:47.680Z,98482.67
2023-01-18T16:14:32.563Z,98483.11
2023-01-18T16:17:12.491Z,98485.48
2023-01-18T16:19:53.618Z,98489.14
2023-01-18T16:22:27.772Z,98491.93
2023-01-18T16:25:01.601Z,98495.38
2023-01-18T16:27:31.755Z,98499.65
2023-01-18T16:30:00.715Z,98509.24
2023-01-18T16:32:33.948Z,98511.20
2023-01-18T16:35:14.103Z,98516.96
2023-01-18T16:37:44.745Z,98520.94
2023-01-18T16:40:21.354Z,98523.55
2023-01-18T16:43:01.787Z,98526.98
2023-01-18T16:45:31.956Z,98530.98
2023-01-18T16:48:00.230Z,98534.73
2023-01-18T16:50:28.516Z,98531.45
2023-01-18T16:52:56.372Z,98532.80
2023-01-18T16:55:24.265Z,98536.95
2023-01-18T16:57:52.475Z,98532.96
2023-01-18T17:00:23.886Z,98537.70
2023-01-18T17:02:53.571Z,98540.31
2023-01-18T17:05:21.651Z,98545.91
2023-01-18T17:07:50.833Z,98547.24
2023-01-18T17:10:29.741Z,98551.23
2023-01-18T17:13:00.321Z,98556.25
2023-01-18T17:15:30.909Z,98559.70
2023-01-18T17:17:59.275Z,98567.96
2023-01-18T17:20:28.052Z,98573.75
2023-01-18T17:22:56.099Z,98583.05
2023-01-18T17:25:24.563Z,98590.18
2023-01-18T17:27:52.637Z,98591.77
2023-01-18T17:30:22.103Z,98594.66
2023-01-18T17:32:50.837Z,98604.14
2023-01-18T17:35:21.888Z,98610.14
2023-01-18T17:37:57.382Z,98610.77
2023-01-18T17:40:40.119Z,98615.87
2023-01-18T17:43:17.367Z,98616.92
2023-01-18T17:45:59.888Z,98618.86
2023-01-18T17:48:28.704Z,98621.54
2023-01-18T17:50:57.039Z,98625.98
2023-01-18T17:53:26.086Z,98623.64
2023-01-18T17:55:54.203Z,98626.13
2023-01-18T17:58:22.579Z,98626.28
2023-01-18T18:00:50.570Z,98633.81
2023-01-18T18:03:18.529Z,98636.20
2023-01-18T18:05:46.464Z,98640.99
2023-01-18T18:08:14.438Z,98645.42
2023-01-18T18:10:43.873Z,98643.82
2023-01-18T18:13:11.650Z,98645.80
2023-01-18T18:15:46.940Z,98646.02
2023-01-18T18:18:30.059Z,98645.17
2023-01-18T18:21:03.719Z,98653.58
2023-01-18T18:23:32.167Z,98657.99
2023-01-18T18:26:04.819Z,98662.90
2023-01-18T18:28:33.486Z,98666.96
2023-01-18T18:31:01.770Z,98672.78
2023-01-18T18:33:30.089Z,98678.48
2023-01-18T18:35:58.131Z,98673.86
2023-01-18T18:38:27.436Z,98671.52
2023-01-18T18:41:03.094Z,98672.67
2023-01-18T18:43:31.253Z,98674.67
2023-01-18T18:45:59.069Z,98680.12
2023-01-18T18:48:27.051Z,98683.91
2023-01-18T18:50:54.870Z,98693.13
2023-01-18T18:53:29.621Z,98696.71
2023-01-18T18:56:12.330Z,98699.38
2023-01-18T18:58:40.628Z,98699.13
2023-01-18T19:01:19.031Z,98709.02
2023-01-18T19:03:48.607Z,98721.27
2023-01-18T19:06:19.641Z,98723.55
2023-01-18T19:08:47.874Z,98722.21
2023-01-18T19:11:16.512Z,98721.57
2023-01-18T19:13:45.813Z,98731.69
2023-01-18T19:16:14.967Z,98734.10
2023-01-18T19:18:43.215Z,98735.92
2023-01-18T19:21:11.577Z,98746.98
2023-01-18T19:23:39.816Z,98751.75
2023-01-18T19:26:07.683Z,98752.85
2023-01-18T19:28:36.411Z,98753.14
2023-01-18T19:31:05.933Z,98759.99
2023-01-18T19:33:34.210Z,98763.66
2023-01-18T19:36:14.534Z,98769.71
2023-01-18T19:38:46.162Z,98779.09
2023-01-18T19:41:15.891Z,98782.21
2023-01-18T19:43:44.571Z,98788.73
2023-01-18T19:46:15.339Z,98783.77
2023-01-18T19:48:43.968Z,98786.57
2023-01-18T19:51:21.653Z,98791.95
2023-01-18T19:53:53.161Z,98792.29
2023-01-18T19:56:22.427Z,98800.81
2023-01-18T19:58:50.842Z,98808.02
2023-01-18T20:01:34.763Z,98808.55
2023-01-18T20:04:05.210Z,98817.71
2023-01-18T20:06:34.258Z,98824.30
2023-01-18T20:09:04.038Z,98830.81
2023-01-18T20:11:33.485Z,98841.31
2023-01-18T20:14:01.893Z,98840.48
2023-01-18T20:16:29.852Z,98842.75
2023-01-18T20:18:58.080Z,98848.25
2023-01-18T20:21:26.645Z,98854.05
2023-01-18T20:23:57.897Z,98855.59
2023-01-18T20:26:35.817Z,98859.92
2023-01-18T20:29:08.683Z,98866.23
2023-01-18T20:31:37.837Z,98874.80
2023-01-18T20:34:06.685Z,98873.52
2023-01-18T20:36:36.354Z,98869.20
2023-01-18T20:39:05.445Z,98867.88
2023-01-18T20:41:33.640Z,98869.32
2023-01-18T20:44:01.805Z,98874.05
2023-01-18T20:46:29.798Z,98877.62
2023-01-18T20:48:58.526Z,98877.52
2023-01-18T20:51:27.334Z,98876.09
2023-01-18T20:53:55.335Z,98875.57
2023-01-18T20:56:29.217Z,98873.50
2023-01-18T20:58:58.441Z,98871.20
2023-01-18T21:01:32.273Z,98870.38
2023-01-18T21:04:02.559Z,98874.76
2023-01-18T21:06:31.489Z,98878.40
2023-01-18T21:09:00.457Z,98876.08
2023-01-18T21:11:28.768Z,98875.23
2023-01-18T21:13:59.264Z,98876.70
2023-01-18T21:16:28.056Z,98879.83
2023-01-18T21:18:57.034Z,98878.78
2023-01-18T21:21:26.912Z,98874.09
2023-01-18T21:23:54.752Z,98867.42
2023-01-18T21:26:23.258Z,98868.14
2023-01-18T21:28:51.343Z,98876.19
2023-01-18T21:31:19.336Z,98885.44
2023-01-18T21:33:48.632Z,98890.00
2023-01-18T21:36:22.225Z,98894.02
2023-01-18T21:38:50.920Z,98889.51
2023-01-18T21:41:37.777Z,98889.80
2023-01-18T21:44:24.589Z,98891.20
2023-01-18T21:46:52.947Z,98904.15
2023-01-18T21:50:04.132Z,98916.90
2023-01-18T21:52:48.050Z,98934.52
2023-01-18T21:55:17.499Z,98940.88
2023-01-18T21:57:45.586Z,98943.85
2023-01-18T22:00:14.053Z,98931.22
2023-01-18T22:02:42.068Z,98929.94
2023-01-18T22:05:10.199Z,98944.23
2023-01-18T22:07:38.175Z,98948.65
2023-01-18T22:10:07.224Z,98954.48
2023-01-18T22:12:38.899Z,98953.14
2023-01-18T22:15:07.486Z,98953.96
2023-01-18T22:17:35.292Z,98960.73
2023-01-18T22:20:04.598Z,98967.04
2023-01-18T22:22:33.096Z,98975.61
2023-01-18T22:25:02.295Z,98979.73
2023-01-18T22:27:30.445Z,98986.60
2023-01-18T22:29:58.737Z,98993.36
2023-01-18T22:32:26.601Z,98990.58
2023-01-18T22:34:55.121Z,98991.62
2023-01-18T22:37:24.726Z,98997.38
2023-01-18T22:39:52.519Z,98992.32
2023-01-18T22:42:20.414Z,98995.11
2023-01-18T22:44:48.827Z,98996.40
2023-01-18T22:47:16.710Z,99001.23
2023-01-18T22:49:44.531Z,98994.59
2023-01-18T22:52:12.726Z,98998.66
2023-01-18T22:54:40.566Z,99000.13
2023-01-18T22:57:08.376Z,99000.93
2023-01-18T22:59:37.053Z,99008.78
2023-01-18T23:02:04.922Z,99006.55
2023-01-18T23:04:34.432Z,99012.39
2023-01-18T23:07:03.038Z,99018.45
2023-01-18T23:09:30.879Z,99022.35
2023-01-18T23:11:58.706Z,99025.34
2023-01-18T23:14:45.626Z,99028.06
2023-01-18T23:17:32.385Z,99028.09
2023-01-18T23:20:00.607Z,99034.43
2023-01-18T23:22:28.770Z,99042.14
2023-01-18T23:24:56.532Z,99044.75
2023-01-18T23:27:24.935Z,99047.25
2023-01-18T23:29:58.692Z,99044.91
2023-01-18T23:32:30.805Z,99045.00
2023-01-18T23:34:59.573Z,99044.30
2023-01-18T23:37:28.045Z,99043.55
2023-01-18T23:40:14.771Z,99041.90
2023-01-18T23:43:02.285Z,99042.95
2023-01-18T23:45:49.020Z,99041.55
2023-01-18T23:48:37.304Z,99041.73
2023-01-18T23:51:23.769Z,99051.42
2023-01-18T23:54:10.435Z,99052.70
2023-01-18T23:56:38.533Z,99063.87
2023-01-18T23:59:06.873Z,99073.17
